This demonstration page uses our WeatherBlox Daily Observations layout. Learn more.

41.55636, -103.73856

Hourly Observations for December 5, 2019

Temp ( °F °C ) Dew Point ( °F °C ) Humidity (%) Winds ( mph kmh ) Pressure ( in mb ) Visibility ( mi km ) Precip ( " mm )
12:58 am 00:58 Clear 36 2.4 27 -2.6 70 70 SSW 7 11 29.97 1015 10 16.0934 0 0
1:58 am 01:58 Clear 37 2.5 26 -3.2 66 66 SW 9 15 29.98 1015 10 16.0934 0 0
2:58 am 02:58 Clear 37 2.7 24 -4.4 60 60 SSW 9 15 29.96 1014 10 16.0934 0 0
3:58 am 03:58 Clear 33 0.4 24 -4.5 70 70 SW 8 13 29.96 1014 10 16.0934 0 0
4:58 am 04:58 Clear 33 0.7 25 -4 71 71 SSW 10 17 29.93 1014 10 16.0934 0 0
5:58 am 05:58 Clear 34 1 26 -3.6 72 72 SW 10 17 29.91 1013 10 16.0934 0 0
6:58 am 06:58 Clear 33 0.6 25 -3.7 73 73 SW 6 9 29.9 1013 10 16.0934 0 0
7:58 am 07:58 Mostly Clear 35 1.9 26 -3.5 68 68 Calm 29.88 1012 10 16.0934 0 0
8:58 am 08:58 Mostly Cloudy 32 -0.2 24 -4.2 75 75 SW 7 11 29.9 1013 10 16.0934 0 0
9:58 am 09:58 Mostly Cloudy 31 -0.5 25 -4 77 77 NNW 3 6 29.9 1013 10 16.0934 0 0
10:58 am 10:58 Mostly Clear 29 -1.8 24 -4.4 83 83 SW 3 6 29.93 1013 10 16.0934 0 0
11:58 am 11:58 Mostly Clear 32 0.2 24 -4.2 73 73 SW 5 7 29.93 1014 10 16.0934 0 0
1:58 pm 13:58 Cloudy 32 -0.1 26 -3.5 78 78 SW 5 7 29.98 1015 10 16.0934 0 0
2:58 pm 14:58 Mostly Cloudy 32 -0.1 26 -3.2 80 80 NW 5 7 30 1016 10 16.0934 0 0
3:58 pm 15:58 Partly Cloudy 33 0.8 27 -2.8 77 77 W 7 11 30.03 1017 10 16.0934 0 0
4:56 pm 16:56 Partly Cloudy 34 1.1 27 -2.7 76 76 WNW 7 11 30.07 1018 10 16.0934 0 0
5:56 pm 17:56 Mostly Cloudy 36 2 27 -2.9 70 70 WNW 7 11 30.06 1018 10 16.0934 0 0
6:56 pm 18:56 Mostly Cloudy 36 2.3 27 -2.6 70 70 NW 7 11 30.09 1019 10 16.0934 0 0
7:56 pm 19:56 Mostly Cloudy 37 2.5 28 -2.4 70 70 WNW 7 11 30.09 1019 10 16.0934 0 0
8:58 pm 20:58 Mostly Cloudy 37 2.5 28 -2.3 71 71 NW 7 11 30.12 1020 10 16.0934 0 0
9:58 pm 21:58 Mostly Cloudy 37 2.8 28 -2 71 71 NW 5 7 30.16 1021 10 16.0934 0 0
10:58 pm 22:58 Sunny 36 2.3 28 -2.5 71 71 NW 6 9 30.21 1023 10 16.0934 0 0
11:58 pm 23:58 Mostly Cloudy 35 1.4 27 -3 73 73 Calm 30.24 1024 10 16.0934 0 0

Powered by AerisWeather